Pagina principale
METAR-TAF:

METAR-TAF

Aeroporti :

Jijel, Algeria

latitudine: 36-53N, longitudine: 005-49E, altezza: 2 m

Osservazione

Il bollettino è stato emesso 21 minuti fa, alle 03:00 UTC
Vento 3 kt da sud/sud-est
Temperature 6°C
Umidità 75%
Pressione 1029 hPa
Visibilità 10 km o più
nessuna nube inferiore a 1500 m e nessun cumulonembo

METAR: DAAV 240300Z 15003KT CAVOK 06/02 Q1029

Ora: 04:21 (03:21 UTC)

Previsione

Il bollettino è stato emesso 4 ore e 21 minuti fa, alle 23:00 UTC
Previsione valida dal 24 alle 00 UTC al 24 alle 24 UTC
Vento 8 kt da sud
Visibilità 10 km o più
nessuna nube inferiore a 1500 m e nessun cumulonembo
Evoluzione graduale
dal 24 alle 07 UTC al 24 alle 09 UTC
Vento 6 kt da nord
Evoluzione graduale
dal 24 alle 16 UTC al 24 alle 18 UTC
Vento 6 kt da sud

TAF: DAAV 232300Z 2400/2424 17008KT CAVOK BECMG 2407/2409 01006KT BECMG 2416/2418 17006KT

Osservazioni e previsioni meteorologiche di più di 4000 aeroporti (messaggi METAR e TAF).

Le stazioni disponibili sono rappresentate dai dischi gialli e rossi sulla carta.

Puntare il mouse per vedere il nome della stazione.

Clicca sopra per visualizzare le osservazioni e previsioni meteorologiche.

Per cambiare la mappa : fare clic sui pulsanti verdi con una croce nera per ingrandire, il pulsante verde con un trattino per diminuire, o sulla freccia verde per le mappe adiacenti.


METAR-TAF: